Time;durP1;ratioP1;P1;durP2;ratioP2;P2;SDS_P1;SDS_P2;PMS_P1;PMS_P2;Temp;Humidity;BMP_temperature;BMP_pressure;BME280_temperature;BME280_humidity;BME280_pressure;Samples;Min_cycle;Max_cycle;Signal;HPM_P1;HPM_P2
2022/02/11 00:07:25;;;;;;;;;;;-0.70;99.90;;;;;;4192136;28;19981;-59
2022/02/11 00:09:25;;;;;;;;;;;-0.70;99.90;;;;;;4190060;28;19970;-56
2022/02/11 00:11:31;;;;;;;;;;;-0.70;99.90;;;;;;4190627;28;19912;-56
2022/02/11 00:13:32;;;;;;;;;;;-0.80;99.90;;;;;;4190248;28;19958;-59
2022/02/11 00:15:43;;;;;;;;;;;-0.90;99.90;;;;;;4191221;28;19916;-60
2022/02/11 00:17:44;;;;;;;;;;;-0.90;99.90;;;;;;4191824;28;20433;-55
2022/02/11 00:19:45;;;;;;;;;;;-0.90;99.90;;;;;;4190853;28;19912;-57
2022/02/11 00:21:46;;;;;;;;;;;-1.00;99.90;;;;;;4191968;28;20366;-55
2022/02/11 00:23:47;;;;;;;;;;;-1.00;99.90;;;;;;4191409;28;19920;-57
2022/02/11 00:25:54;;;;;;;;;;;-1.00;99.90;;;;;;4191536;28;19912;-61
2022/02/11 00:33:59;;;;;;;;;;;-1.00;99.90;;;;;;4191224;28;20007;-55
2022/02/11 00:36:03;;;;;;;;;;;-1.00;99.90;;;;;;4191233;28;19970;-57
2022/02/11 00:38:11;;;;;;;;;;;-1.00;99.90;;;;;;4189882;28;19916;-61
2022/02/11 00:43:17;;;;;;;;;;;-1.00;99.90;;;;;;4191075;28;19913;-59
2022/02/11 01:05:16;;;;;;;;;;;-1.00;99.90;;;;;;4190986;28;19912;-62
2022/02/11 01:07:17;;;;;;;;;;;-1.00;99.90;;;;;;4191143;28;19920;-59
2022/02/11 01:09:18;;;;;;;;;;;-1.00;99.90;;;;;;4190351;28;19942;-57
2022/02/11 01:11:27;;;;;;;;;;;-1.20;99.90;;;;;;4190699;28;20304;-59
2022/02/11 01:13:28;;;;;;;;;;;-1.40;99.90;;;;;;4172329;28;20454;-58
2022/02/11 01:15:31;;;;;;;;;;;-1.40;99.90;;;;;;4189402;28;19908;-61
2022/02/11 01:17:37;;;;;;;;;;;-1.50;99.90;;;;;;4190651;28;19912;-59
2022/02/11 01:19:49;;;;;;;;;;;-1.50;99.90;;;;;;4190630;28;19916;-59
2022/02/11 01:24:13;;;;;;;;;;;-1.60;99.90;;;;;;4190176;28;19921;-58
2022/02/11 01:26:32;;;;;;;;;;;-1.60;99.90;;;;;;4189552;28;19970;-61
2022/02/11 01:31:17;;;;;;;;;;;-1.60;99.90;;;;;;4190203;28;19913;-58
2022/02/11 01:35:39;;;;;;;;;;;-1.60;99.90;;;;;;4190551;28;19913;-58
2022/02/11 01:51:38;;;;;;;;;;;-1.90;99.90;;;;;;4173720;28;20357;-57
2022/02/11 01:53:43;;;;;;;;;;;-1.90;99.90;;;;;;4172487;28;20003;-57
2022/02/11 02:12:06;;;;;;;;;;;-1.80;99.90;;;;;;4173069;28;20425;-62
2022/02/11 02:25:01;;;;;;;;;;;-1.90;99.90;;;;;;4172783;28;20426;-61
2022/02/11 02:57:04;;;;;;;;;;;-2.40;99.90;;;;;;4189800;28;20013;-60
2022/02/11 02:59:20;;;;;;;;;;;-2.40;99.90;;;;;;4189155;28;19925;-57
2022/02/11 04:56:14;;;;;;;;;;;-4.40;99.90;;;;;;4190376;28;19966;-61
2022/02/11 05:00:34;;;;;;;;;;;-4.60;99.90;;;;;;4189474;28;19966;-57
2022/02/11 05:02:35;;;;;;;;;;;-4.60;99.90;;;;;;4190675;28;20397;-60
2022/02/11 05:04:36;;;;;;;;;;;-4.70;99.90;;;;;;4190266;28;19916;-59
2022/02/11 05:06:37;;;;;;;;;;;-4.70;99.90;;;;;;4190292;28;19912;-57
2022/02/11 05:08:38;;;;;;;;;;;-4.70;99.90;;;;;;4191266;28;20390;-57
2022/02/11 05:10:39;;;;;;;;;;;-4.70;99.90;;;;;;4188944;28;20127;-59
2022/02/11 05:12:42;;;;;;;;;;;-4.70;99.90;;;;;;4190606;28;19919;-57
2022/02/11 05:14:43;;;;;;;;;;;-4.60;99.90;;;;;;4189996;28;19932;-61
2022/02/11 05:16:44;;;;;;;;;;;-4.60;99.90;;;;;;4190172;28;19912;-55
2022/02/11 05:18:45;;;;;;;;;;;-4.60;99.90;;;;;;4190176;28;19986;-62
2022/02/11 05:20:46;;;;;;;;;;;-4.60;99.90;;;;;;4190146;28;20790;-57
2022/02/11 05:22:46;;;;;;;;;;;-4.60;99.90;;;;;;4189799;28;19913;-59
2022/02/11 05:24:47;;;;;;;;;;;-4.60;99.90;;;;;;4189403;28;20323;-60
2022/02/11 05:26:48;;;;;;;;;;;-4.60;99.90;;;;;;4189620;28;19920;-58
2022/02/11 05:28:49;;;;;;;;;;;-4.60;99.90;;;;;;4189959;28;19918;-59
2022/02/11 05:30:50;;;;;;;;;;;-4.60;99.90;;;;;;4184706;28;19943;-57
2022/02/11 05:32:51;;;;;;;;;;;-4.60;99.90;;;;;;4172984;28;19923;-57
2022/02/11 05:34:52;;;;;;;;;;;-4.60;99.90;;;;;;4172805;28;19913;-56
2022/02/11 05:36:53;;;;;;;;;;;-4.60;99.90;;;;;;4172909;28;19916;-58
2022/02/11 05:38:54;;;;;;;;;;;-4.60;99.90;;;;;;4175836;28;19920;-62
2022/02/11 05:40:55;;;;;;;;;;;-4.60;99.90;;;;;;4180476;28;20353;-59
2022/02/11 05:42:56;;;;;;;;;;;-4.60;99.90;;;;;;4189813;28;19970;-57
2022/02/11 05:44:57;;;;;;;;;;;-4.60;99.90;;;;;;4187441;28;19916;-59
2022/02/11 05:46:58;;;;;;;;;;;-4.50;99.90;;;;;;4173110;28;19970;-61
2022/02/11 05:49:00;;;;;;;;;;;-4.50;99.90;;;;;;4173096;28;19920;-63
2022/02/11 05:51:01;;;;;;;;;;;-4.40;99.90;;;;;;4179740;28;19966;-59
2022/02/11 05:53:03;;;;;;;;;;;-4.30;99.90;;;;;;4177165;28;19921;-65
2022/02/11 05:55:04;;;;;;;;;;;-4.30;99.90;;;;;;4187207;28;19970;-59
2022/02/11 05:57:05;;;;;;;;;;;-4.30;99.90;;;;;;4189251;28;19912;-61
2022/02/11 05:59:06;;;;;;;;;;;-4.20;99.90;;;;;;4189366;28;19931;-57
2022/02/11 06:01:07;;;;;;;;;;;-4.20;99.90;;;;;;4188897;28;19912;-57
2022/02/11 06:03:08;;;;;;;;;;;-4.10;99.90;;;;;;4184529;28;20268;-58
2022/02/11 06:05:09;;;;;;;;;;;-3.90;99.90;;;;;;4187572;28;20921;-62
2022/02/11 06:07:09;;;;;;;;;;;-3.80;99.90;;;;;;4185890;28;19908;-61
2022/02/11 06:09:10;;;;;;;;;;;-3.70;99.90;;;;;;4190118;28;19916;-57
2022/02/11 06:11:12;;;;;;;;;;;-3.50;99.90;;;;;;4187848;28;19947;-60
2022/02/11 06:13:13;;;;;;;;;;;-3.20;99.90;;;;;;4176974;28;19916;-56
2022/02/11 06:15:14;;;;;;;;;;;-3.00;99.90;;;;;;4181459;28;19958;-58
2022/02/11 06:17:16;;;;;;;;;;;-2.70;99.90;;;;;;4184481;28;20701;-59
2022/02/11 06:19:17;;;;;;;;;;;-2.50;99.90;;;;;;4176407;28;19920;-64
2022/02/11 06:21:18;;;;;;;;;;;-2.30;99.90;;;;;;4189611;28;19912;-60
2022/02/11 06:23:19;;;;;;;;;;;-2.00;99.90;;;;;;4189027;28;20757;-58
2022/02/11 06:25:20;;;;;;;;;;;-1.70;99.90;;;;;;4189697;28;19975;-60
2022/02/11 06:27:21;;;;;;;;;;;-1.40;99.90;;;;;;4178481;28;19950;-61
2022/02/11 06:29:22;;;;;;;;;;;-1.00;99.90;;;;;;4173494;28;19936;-66
2022/02/11 06:31:23;;;;;;;;;;;-0.70;99.90;;;;;;4172056;28;19913;-62
2022/02/11 06:33:24;;;;;;;;;;;-0.50;99.90;;;;;;4172552;28;19914;-60
2022/02/11 06:35:26;;;;;;;;;;;-0.30;99.90;;;;;;4172841;28;19913;-63
2022/02/11 06:37:27;;;;;;;;;;;-0.10;99.90;;;;;;4173250;28;19909;-60
2022/02/11 06:39:28;;;;;;;;;;;0.10;99.90;;;;;;4176056;28;20363;-62
2022/02/11 06:41:29;;;;;;;;;;;0.30;99.90;;;;;;4179174;28;20335;-57
2022/02/11 06:43:29;;;;;;;;;;;0.50;99.90;;;;;;4179070;28;19912;-56
2022/02/11 06:45:31;;;;;;;;;;;0.70;99.90;;;;;;4178134;28;19961;-62
2022/02/11 06:47:32;;;;;;;;;;;0.70;99.90;;;;;;4158851;28;19942;-59
2022/02/11 06:49:33;;;;;;;;;;;0.60;99.90;;;;;;4174782;28;20408;-63
2022/02/11 06:51:34;;;;;;;;;;;0.70;99.90;;;;;;4179218;28;19917;-62
2022/02/11 06:53:36;;;;;;;;;;;0.70;99.90;;;;;;4170709;28;19987;-60
2022/02/11 06:55:37;;;;;;;;;;;1.00;99.90;;;;;;4173292;28;19974;-61
2022/02/11 06:57:38;;;;;;;;;;;1.40;99.90;;;;;;4174919;28;19916;-60
2022/02/11 06:59:39;;;;;;;;;;;1.70;99.90;;;;;;4177814;28;19925;-61
2022/02/11 07:01:40;;;;;;;;;;;2.10;99.90;;;;;;4171274;28;19916;-60
2022/02/11 07:03:41;;;;;;;;;;;2.20;99.90;;;;;;4177456;28;19982;-61
2022/02/11 07:05:42;;;;;;;;;;;1.60;99.90;;;;;;4171273;28;19929;-61
2022/02/11 07:07:43;;;;;;;;;;;1.00;99.90;;;;;;4175817;28;19916;-61
2022/02/11 07:09:44;;;;;;;;;;;0.60;99.90;;;;;;4177522;28;20341;-60
2022/02/11 07:11:45;;;;;;;;;;;0.30;99.90;;;;;;4172515;28;20357;-60
2022/02/11 07:13:46;;;;;;;;;;;0.00;99.90;;;;;;4182740;28;19966;-57
2022/02/11 07:15:47;;;;;;;;;;;0.10;99.90;;;;;;4172717;28;20357;-60
2022/02/11 07:17:48;;;;;;;;;;;0.70;99.90;;;;;;4173745;28;19928;-60
2022/02/11 07:19:49;;;;;;;;;;;1.30;99.90;;;;;;4178082;28;19917;-60
2022/02/11 07:21:50;;;;;;;;;;;1.80;99.90;;;;;;4182463;28;19912;-55
2022/02/11 07:23:51;;;;;;;;;;;2.10;99.90;;;;;;4178986;28;19923;-60
2022/02/11 07:25:52;;;;;;;;;;;2.20;99.90;;;;;;4182074;28;20289;-56
2022/02/11 07:27:53;;;;;;;;;;;2.50;99.90;;;;;;4178993;28;19928;-59
2022/02/11 07:29:54;;;;;;;;;;;2.70;99.90;;;;;;4182022;28;19912;-61
2022/02/11 07:31:54;;;;;;;;;;;3.00;99.90;;;;;;4179536;28;19920;-58
2022/02/11 07:33:55;;;;;;;;;;;2.90;99.90;;;;;;4181756;28;19924;-58
2022/02/11 07:35:56;;;;;;;;;;;2.70;99.90;;;;;;4181094;28;19927;-57
2022/02/11 07:37:58;;;;;;;;;;;2.50;99.90;;;;;;4178706;28;19927;-58
2022/02/11 07:39:59;;;;;;;;;;;2.60;99.90;;;;;;4161422;28;19917;-58
2022/02/11 07:42:00;;;;;;;;;;;2.40;99.90;;;;;;4178587;28;19921;-57
2022/02/11 07:44:01;;;;;;;;;;;2.20;99.90;;;;;;4177327;28;19920;-57
2022/02/11 07:46:02;;;;;;;;;;;2.30;99.90;;;;;;4178176;28;19920;-59
2022/02/11 07:48:03;;;;;;;;;;;2.40;99.90;;;;;;4179451;28;19928;-59
2022/02/11 07:50:05;;;;;;;;;;;2.20;99.90;;;;;;4190917;28;20648;-61
2022/02/11 07:52:06;;;;;;;;;;;1.80;99.90;;;;;;4178121;28;20365;-59
2022/02/11 07:54:07;;;;;;;;;;;1.20;99.90;;;;;;4184943;28;19917;-61
2022/02/11 07:56:08;;;;;;;;;;;0.90;99.90;;;;;;4191373;28;19912;-57
2022/02/11 07:58:09;;;;;;;;;;;0.80;99.90;;;;;;4191309;28;20418;-58
2022/02/11 08:00:11;;;;;;;;;;;0.90;99.90;;;;;;4190010;28;19978;-59
2022/02/11 08:02:12;;;;;;;;;;;0.70;99.90;;;;;;4177916;28;19916;-63
2022/02/11 08:04:12;;;;;;;;;;;0.50;99.90;;;;;;4187118;28;19919;-62
2022/02/11 08:06:14;;;;;;;;;;;0.20;99.90;;;;;;4180323;28;20364;-58
2022/02/11 08:08:15;;;;;;;;;;;-0.30;99.90;;;;;;4191636;28;19917;-59
2022/02/11 08:10:16;;;;;;;;;;;-0.70;99.90;;;;;;4190958;28;19939;-60
2022/02/11 08:12:17;;;;;;;;;;;-0.90;99.90;;;;;;4191380;28;19912;-56
2022/02/11 08:14:18;;;;;;;;;;;-1.00;99.90;;;;;;4179039;28;19982;-57
2022/02/11 08:16:20;;;;;;;;;;;-1.10;99.90;;;;;;4175193;28;19909;-61
2022/02/11 08:18:22;;;;;;;;;;;-1.20;99.90;;;;;;4186635;28;20364;-60
2022/02/11 08:20:24;;;;;;;;;;;-1.30;99.90;;;;;;4190790;28;19932;-60
2022/02/11 08:22:24;;;;;;;;;;;-1.30;99.90;;;;;;4190993;28;20455;-62
2022/02/11 08:24:25;;;;;;;;;;;-1.30;99.90;;;;;;4191378;28;19913;-60
2022/02/11 08:26:29;;;;;;;;;;;-1.30;99.90;;;;;;4190187;28;20353;-61
2022/02/11 08:28:31;;;;;;;;;;;-1.30;99.90;;;;;;4190642;28;19962;-63
2022/02/11 08:30:32;;;;;;;;;;;-1.30;99.90;;;;;;4191210;28;19909;-60
2022/02/11 08:32:32;;;;;;;;;;;-1.20;99.90;;;;;;4190936;28;19942;-58
2022/02/11 08:34:33;;;;;;;;;;;-1.10;99.90;;;;;;4188406;28;19962;-53
2022/02/11 08:36:34;;;;;;;;;;;-0.90;99.90;;;;;;4190428;28;19912;-59
2022/02/11 08:38:36;;;;;;;;;;;-0.70;99.90;;;;;;4190515;28;19917;-63
2022/02/11 08:40:37;;;;;;;;;;;-0.50;99.90;;;;;;4164850;28;19939;-63
2022/02/11 08:42:38;;;;;;;;;;;-0.50;99.90;;;;;;4185013;28;19943;-60
2022/02/11 08:44:39;;;;;;;;;;;-0.30;99.90;;;;;;4174632;28;20015;-59
2022/02/11 08:46:40;;;;;;;;;;;-0.20;99.90;;;;;;4174308;28;19912;-58
2022/02/11 08:48:41;;;;;;;;;;;-0.10;99.90;;;;;;4180869;28;20567;-60
2022/02/11 08:50:43;;;;;;;;;;;0.00;99.90;;;;;;4190672;28;20007;-54
2022/02/11 08:52:44;;;;;;;;;;;0.10;99.90;;;;;;4189374;28;20364;-59
2022/02/11 08:54:45;;;;;;;;;;;0.20;99.90;;;;;;4188934;28;20365;-60
2022/02/11 08:56:48;;;;;;;;;;;0.30;99.90;;;;;;4190254;28;19919;-57
2022/02/11 08:58:49;;;;;;;;;;;0.30;99.90;;;;;;4190278;28;19924;-52
2022/02/11 09:00:51;;;;;;;;;;;0.20;99.90;;;;;;4178443;28;19958;-58
2022/02/11 09:02:52;;;;;;;;;;;0.10;99.90;;;;;;4173943;28;19916;-61
2022/02/11 09:04:54;;;;;;;;;;;0.10;99.90;;;;;;4182392;28;19936;-61
2022/02/11 09:06:55;;;;;;;;;;;0.00;99.90;;;;;;4173635;28;20377;-59
2022/02/11 09:08:56;;;;;;;;;;;-0.10;99.90;;;;;;4174313;28;20402;-55
2022/02/11 09:10:57;;;;;;;;;;;-0.20;99.90;;;;;;4174095;28;19909;-60
2022/02/11 09:12:59;;;;;;;;;;;-0.20;99.90;;;;;;4173863;28;19913;-59
2022/02/11 09:15:00;;;;;;;;;;;0.00;99.90;;;;;;4173358;28;19909;-58
2022/02/11 09:17:01;;;;;;;;;;;0.00;99.90;;;;;;4173417;28;20466;-56
2022/02/11 09:19:03;;;;;;;;;;;0.00;99.90;;;;;;4173021;28;19917;-65
2022/02/11 09:21:04;;;;;;;;;;;0.00;99.90;;;;;;4173591;28;20262;-54
2022/02/11 09:23:05;;;;;;;;;;;0.00;99.90;;;;;;4174228;28;19962;-63
2022/02/11 09:25:07;;;;;;;;;;;0.00;99.90;;;;;;4172965;28;19921;-59
2022/02/11 09:27:08;;;;;;;;;;;0.00;99.90;;;;;;4173663;28;20327;-65
2022/02/11 09:29:08;;;;;;;;;;;0.00;99.90;;;;;;4172959;28;19917;-57
2022/02/11 09:31:11;;;;;;;;;;;0.10;99.90;;;;;;4173211;28;19921;-61
2022/02/11 09:33:13;;;;;;;;;;;0.00;99.90;;;;;;4180950;28;19982;-59
2022/02/11 09:35:15;;;;;;;;;;;0.20;99.90;;;;;;4178923;28;19925;-60
2022/02/11 09:37:16;;;;;;;;;;;0.10;99.90;;;;;;4155438;28;19913;-62
2022/02/11 09:39:17;;;;;;;;;;;0.30;99.90;;;;;;4173905;28;20361;-60
2022/02/11 09:41:18;;;;;;;;;;;0.50;99.90;;;;;;4183387;28;19935;-58
2022/02/11 09:43:23;;;;;;;;;;;0.50;99.90;;;;;;4182148;28;20359;-64
2022/02/11 09:45:24;;;;;;;;;;;0.60;99.90;;;;;;4181458;28;19932;-62
2022/02/11 09:47:26;;;;;;;;;;;0.80;99.90;;;;;;4189474;28;19916;-61
2022/02/11 09:49:26;;;;;;;;;;;0.70;99.90;;;;;;4189943;28;19909;-59
2022/02/11 09:51:27;;;;;;;;;;;0.60;99.90;;;;;;4186829;28;19909;-63
2022/02/11 09:53:29;;;;;;;;;;;0.70;99.90;;;;;;4189557;28;19923;-57
2022/02/11 09:55:33;;;;;;;;;;;0.80;99.90;;;;;;4187538;28;20383;-60
2022/02/11 09:57:34;;;;;;;;;;;0.80;99.90;;;;;;4172391;28;19962;-62
2022/02/11 09:59:34;;;;;;;;;;;0.80;99.90;;;;;;4175460;28;20380;-64
2022/02/11 10:01:37;;;;;;;;;;;0.80;99.90;;;;;;4183995;28;19908;-62
2022/02/11 10:03:38;;;;;;;;;;;0.80;99.90;;;;;;4188740;28;19970;-62
2022/02/11 10:05:39;;;;;;;;;;;0.90;99.90;;;;;;4178148;28;19924;-59
2022/02/11 10:07:47;;;;;;;;;;;0.90;99.90;;;;;;4172992;28;19909;-57
2022/02/11 10:09:48;;;;;;;;;;;1.00;99.90;;;;;;4173216;28;19920;-61
2022/02/11 10:11:49;;;;;;;;;;;1.10;99.90;;;;;;4188957;28;20269;-61
2022/02/11 10:13:53;;;;;;;;;;;1.20;99.90;;;;;;4189225;28;19912;-54
2022/02/11 10:15:58;;;;;;;;;;;1.40;99.90;;;;;;4188947;28;19974;-60
2022/02/11 10:17:59;;;;;;;;;;;1.40;99.90;;;;;;4188913;28;19916;-59
2022/02/11 10:20:00;;;;;;;;;;;1.40;99.90;;;;;;4185936;28;20346;-58
2022/02/11 10:22:11;;;;;;;;;;;1.50;99.90;;;;;;4172548;28;19913;-60
2022/02/11 10:24:25;;;;;;;;;;;1.60;99.90;;;;;;4171666;28;19925;-63
2022/02/11 10:26:27;;;;;;;;;;;1.70;99.90;;;;;;4172392;28;19920;-60
2022/02/11 10:28:41;;;;;;;;;;;1.80;99.90;;;;;;4172314;28;19916;-60
2022/02/11 10:30:42;;;;;;;;;;;1.90;99.90;;;;;;4171406;28;20530;-62
2022/02/11 10:32:48;;;;;;;;;;;2.10;99.90;;;;;;4172388;28;19916;-57
2022/02/11 10:34:52;;;;;;;;;;;2.20;99.90;;;;;;4162574;28;19952;-62
2022/02/11 10:36:53;;;;;;;;;;;2.30;99.90;;;;;;4172749;28;20246;-64
2022/02/11 10:39:00;;;;;;;;;;;2.40;99.90;;;;;;4187504;28;19922;-62
2022/02/11 10:41:01;;;;;;;;;;;2.30;99.90;;;;;;4187654;28;19969;-62
2022/02/11 10:43:02;;;;;;;;;;;2.30;99.90;;;;;;4188893;28;20396;-58
2022/02/11 10:45:24;;;;;;;;;;;2.40;99.90;;;;;;4188254;28;19921;-59
2022/02/11 10:47:30;;;;;;;;;;;2.50;99.90;;;;;;4186781;28;19912;-58
2022/02/11 10:50:00;;;;;;;;;;;2.60;99.90;;;;;;4189207;28;20390;-60
2022/02/11 10:52:13;;;;;;;;;;;2.50;99.90;;;;;;4170878;28;19982;-60
2022/02/11 10:54:24;;;;;;;;;;;2.60;99.90;;;;;;4188273;28;19920;-58
2022/02/11 10:56:25;;;;;;;;;;;2.70;99.90;;;;;;4188289;28;19966;-56
2022/02/11 10:58:32;;;;;;;;;;;2.90;99.90;;;;;;4187526;28;19962;-58
2022/02/11 11:00:33;;;;;;;;;;;3.00;99.90;;;;;;4188190;28;19916;-57
2022/02/11 11:02:34;;;;;;;;;;;3.10;99.90;;;;;;4188124;28;19913;-70
2022/02/11 11:04:35;;;;;;;;;;;3.20;99.90;;;;;;4188677;28;19913;-61
2022/02/11 11:06:36;;;;;;;;;;;3.30;99.90;;;;;;4186716;28;19920;-62
2022/02/11 11:08:39;;;;;;;;;;;3.40;99.90;;;;;;4188860;28;20335;-59
2022/02/11 11:10:41;;;;;;;;;;;3.60;99.90;;;;;;4188975;28;19982;-63
2022/02/11 11:12:46;;;;;;;;;;;3.70;99.90;;;;;;4188660;28;19912;-60
2022/02/11 11:14:49;;;;;;;;;;;3.80;99.90;;;;;;4187686;28;20163;-61
2022/02/11 11:16:52;;;;;;;;;;;3.90;99.90;;;;;;4188174;28;19916;-61
2022/02/11 11:18:54;;;;;;;;;;;4.00;99.90;;;;;;4188041;28;20493;-59
2022/02/11 11:20:56;;;;;;;;;;;4.10;99.90;;;;;;4188454;28;19966;-57
2022/02/11 11:22:59;;;;;;;;;;;4.20;99.90;;;;;;4187998;28;20642;-61
2022/02/11 11:25:00;;;;;;;;;;;4.30;99.90;;;;;;4188505;28;20344;-60
2022/02/11 11:27:03;;;;;;;;;;;4.40;99.90;;;;;;4189188;28;21185;-60
2022/02/11 11:29:06;;;;;;;;;;;4.50;99.90;;;;;;4188834;28;19962;-58
2022/02/11 11:31:11;;;;;;;;;;;4.70;99.90;;;;;;4188772;28;19916;-56
2022/02/11 11:33:12;;;;;;;;;;;4.80;99.90;;;;;;4188747;28;19958;-61
2022/02/11 11:35:22;;;;;;;;;;;5.00;99.90;;;;;;4188214;28;19963;-66
2022/02/11 11:37:23;;;;;;;;;;;5.10;99.90;;;;;;4201088;28;19962;-61
2022/02/11 11:39:24;;;;;;;;;;;5.20;99.90;;;;;;4204972;28;20356;-61
2022/02/11 11:41:26;;;;;;;;;;;5.30;99.90;;;;;;4193593;28;19913;-65
2022/02/11 11:43:31;;;;;;;;;;;5.50;99.90;;;;;;4187448;28;19975;-61
2022/02/11 11:45:32;;;;;;;;;;;5.60;99.90;;;;;;4188652;28;19921;-62
2022/02/11 11:47:35;;;;;;;;;;;5.70;99.90;;;;;;4187058;28;20740;-59
2022/02/11 11:49:41;;;;;;;;;;;5.90;99.90;;;;;;4188248;28;20287;-60
2022/02/11 11:51:45;;;;;;;;;;;6.00;99.90;;;;;;4188164;28;19938;-59
2022/02/11 11:53:46;;;;;;;;;;;6.00;99.90;;;;;;4187519;28;19912;-60
2022/02/11 11:55:47;;;;;;;;;;;6.20;99.90;;;;;;4188363;28;19962;-59
2022/02/11 11:57:48;;;;;;;;;;;6.30;99.90;;;;;;4188384;28;19912;-60
2022/02/11 11:59:50;;;;;;;;;;;6.40;99.90;;;;;;4188134;28;19950;-69
2022/02/11 12:01:53;;;;;;;;;;;6.50;99.90;;;;;;4188515;28;20429;-61
2022/02/11 12:04:12;;;;;;;;;;;6.60;99.90;;;;;;4188778;28;19985;-58
2022/02/11 12:06:18;;;;;;;;;;;6.70;99.90;;;;;;4188391;28;19966;-61
2022/02/11 12:08:27;;;;;;;;;;;6.70;99.90;;;;;;4188766;28;19912;-59
2022/02/11 12:10:28;;;;;;;;;;;6.80;99.90;;;;;;4191588;28;19954;-58
2022/02/11 12:12:30;;;;;;;;;;;6.90;99.90;;;;;;4191405;28;19916;-60
2022/02/11 12:14:32;;;;;;;;;;;7.00;99.90;;;;;;4173058;28;20369;-62
2022/02/11 12:16:34;;;;;;;;;;;7.10;99.90;;;;;;4190230;28;19912;-59
2022/02/11 12:18:35;;;;;;;;;;;7.20;99.90;;;;;;4191110;28;20356;-61
2022/02/11 12:20:38;;;;;;;;;;;7.20;99.90;;;;;;4190999;28;19970;-61
2022/02/11 12:27:19;;;;;;;;;;;7.30;99.90;;;;;;4190752;28;19958;-60
2022/02/11 12:27:31;;;;;;;;;;;7.40;99.90;;;;;;4190823;28;20026;-60
2022/02/11 12:29:32;;;;;;;;;;;7.50;99.90;;;;;;4190589;28;20003;-60
2022/02/11 12:31:33;;;;;;;;;;;7.50;99.90;;;;;;4190643;28;19912;-61
2022/02/11 12:33:37;;;;;;;;;;;7.60;99.90;;;;;;4190906;28;19959;-61
2022/02/11 12:35:38;;;;;;;;;;;7.70;99.90;;;;;;4189917;28;20330;-58
2022/02/11 12:37:41;;;;;;;;;;;7.70;99.90;;;;;;4189913;28;19966;-59
2022/02/11 12:39:42;;;;;;;;;;;7.80;99.90;;;;;;4190276;28;20827;-60
2022/02/11 12:41:45;;;;;;;;;;;7.80;99.90;;;;;;4190607;28;19912;-60
2022/02/11 12:43:56;;;;;;;;;;;7.70;99.90;;;;;;4189318;28;19920;-60
2022/02/11 12:45:57;;;;;;;;;;;7.80;99.90;;;;;;4190394;28;19940;-59
2022/02/11 12:47:59;;;;;;;;;;;7.90;99.90;;;;;;4190725;28;19969;-56
2022/02/11 12:50:00;;;;;;;;;;;7.90;99.90;;;;;;4192223;28;20368;-62
2022/02/11 12:52:01;;;;;;;;;;;8.00;99.90;;;;;;4177432;28;19950;-66
2022/02/11 12:54:05;;;;;;;;;;;8.00;99.90;;;;;;4190530;28;20380;-53
2022/02/11 12:56:11;;;;;;;;;;;8.10;99.90;;;;;;4190294;28;19912;-65
2022/02/11 12:58:14;;;;;;;;;;;8.10;99.90;;;;;;4189987;28;19920;-61
2022/02/11 13:00:16;;;;;;;;;;;8.10;99.90;;;;;;4180844;28;20389;-61
2022/02/11 13:02:24;;;;;;;;;;;8.20;99.90;;;;;;4158880;28;19917;-59
2022/02/11 13:04:25;;;;;;;;;;;8.30;99.90;;;;;;4157092;28;19913;-64
2022/02/11 13:06:26;;;;;;;;;;;8.30;99.90;;;;;;4157748;28;20019;-62
2022/02/11 13:08:28;;;;;;;;;;;8.30;99.90;;;;;;4156818;28;19921;-60
2022/02/11 13:10:30;;;;;;;;;;;8.30;99.90;;;;;;4156826;28;20340;-56
2022/02/11 13:12:39;;;;;;;;;;;8.30;99.90;;;;;;4164626;28;19917;-58
2022/02/11 13:14:46;;;;;;;;;;;8.40;99.90;;;;;;4157420;28;19917;-55
2022/02/11 13:16:47;;;;;;;;;;;8.50;99.90;;;;;;4157492;28;20374;-58
2022/02/11 13:18:48;;;;;;;;;;;8.60;99.90;;;;;;4157793;28;19913;-57
2022/02/11 13:20:52;;;;;;;;;;;8.60;99.90;;;;;;4156600;28;20038;-58
2022/02/11 13:22:53;;;;;;;;;;;8.60;99.90;;;;;;4156777;28;19967;-61
2022/02/11 13:24:54;;;;;;;;;;;8.70;99.90;;;;;;4176073;28;20337;-58
2022/02/11 13:26:57;;;;;;;;;;;8.70;99.90;;;;;;4186885;28;19937;-58
2022/02/11 13:28:58;;;;;;;;;;;8.60;99.90;;;;;;4189712;28;19916;-63
2022/02/11 13:31:00;;;;;;;;;;;8.60;99.90;;;;;;4189989;28;19942;-58
2022/02/11 13:33:17;;;;;;;;;;;8.60;99.90;;;;;;4168002;28;19921;-63
2022/02/11 13:35:18;;;;;;;;;;;8.60;99.90;;;;;;4156456;28;19921;-58
2022/02/11 13:37:20;;;;;;;;;;;8.70;99.90;;;;;;4160463;28;19920;-56
2022/02/11 13:39:25;;;;;;;;;;;8.70;99.90;;;;;;4169085;28;19963;-60
2022/02/11 13:41:38;;;;;;;;;;;8.80;99.90;;;;;;4161074;28;19917;-58
2022/02/11 13:43:48;;;;;;;;;;;8.80;99.90;;;;;;4155623;28;19967;-55
2022/02/11 13:45:51;;;;;;;;;;;8.80;99.90;;;;;;4156386;28;20339;-61
2022/02/11 13:48:08;;;;;;;;;;;8.90;99.90;;;;;;4157095;28;19959;-66
2022/02/11 13:50:08;;;;;;;;;;;8.90;99.90;;;;;;4169856;28;19927;-60
2022/02/11 13:54:29;;;;;;;;;;;8.90;99.90;;;;;;4172949;28;20876;-59
2022/02/11 13:56:39;;;;;;;;;;;8.90;99.90;;;;;;4167400;28;19909;-59
2022/02/11 13:59:00;;;;;;;;;;;8.90;99.90;;;;;;4172737;28;19925;-60
2022/02/11 14:01:02;;;;;;;;;;;8.90;99.90;;;;;;4172636;28;19913;-59
2022/02/11 14:03:03;;;;;;;;;;;8.90;99.90;;;;;;4172300;28;19981;-63
2022/02/11 14:05:06;;;;;;;;;;;8.90;99.90;;;;;;4172318;28;19925;-56
2022/02/11 14:07:12;;;;;;;;;;;8.90;99.90;;;;;;4172740;28;20363;-59
2022/02/11 14:09:29;;;;;;;;;;;8.90;99.90;;;;;;4163920;28;19960;-62
2022/02/11 14:11:37;;;;;;;;;;;8.90;99.90;;;;;;4188829;28;20339;-60
2022/02/11 14:13:39;;;;;;;;;;;8.90;99.90;;;;;;4189271;28;19909;-65
2022/02/11 14:15:41;;;;;;;;;;;8.80;99.90;;;;;;4188899;28;20001;-61
2022/02/11 14:17:43;;;;;;;;;;;8.80;99.90;;;;;;4188106;28;19978;-61
2022/02/11 14:19:44;;;;;;;;;;;8.80;99.90;;;;;;4171237;28;19924;-61
2022/02/11 14:21:45;;;;;;;;;;;8.80;99.90;;;;;;4187720;28;19916;-58
2022/02/11 14:23:46;;;;;;;;;;;8.70;99.90;;;;;;4172593;28;20261;-61
2022/02/11 14:25:47;;;;;;;;;;;8.70;99.90;;;;;;4171987;28;20421;-58
2022/02/11 14:27:48;;;;;;;;;;;8.60;99.90;;;;;;4172366;28;19917;-58
2022/02/11 14:29:49;;;;;;;;;;;8.60;99.90;;;;;;4171942;28;19913;-58
2022/02/11 14:31:54;;;;;;;;;;;8.50;99.90;;;;;;4171109;28;19936;-61
2022/02/11 14:33:55;;;;;;;;;;;8.50;99.90;;;;;;4175088;28;19970;-60
2022/02/11 14:35:56;;;;;;;;;;;8.40;99.90;;;;;;4173812;28;20422;-63
2022/02/11 14:37:57;;;;;;;;;;;8.30;99.90;;;;;;4176072;28;19979;-60
2022/02/11 14:39:57;;;;;;;;;;;8.30;99.90;;;;;;4178318;28;19913;-61
2022/02/11 14:42:02;;;;;;;;;;;8.20;99.90;;;;;;4182531;28;19934;-59
2022/02/11 14:44:03;;;;;;;;;;;8.20;99.90;;;;;;4188093;28;19912;-61
2022/02/11 14:46:04;;;;;;;;;;;8.20;99.90;;;;;;4189195;28;19931;-61
2022/02/11 14:48:04;;;;;;;;;;;8.20;99.90;;;;;;4180013;28;19997;-57
2022/02/11 14:50:06;;;;;;;;;;;8.20;99.90;;;;;;4184271;28;20323;-60
2022/02/11 14:52:08;;;;;;;;;;;8.10;99.90;;;;;;4175025;28;19912;-63
2022/02/11 14:54:10;;;;;;;;;;;8.00;99.90;;;;;;4187686;28;19913;-58
2022/02/11 14:56:11;;;;;;;;;;;8.00;99.90;;;;;;4182593;28;19962;-59
2022/02/11 14:58:12;;;;;;;;;;;7.90;99.90;;;;;;4188394;28;20357;-61
2022/02/11 15:00:13;;;;;;;;;;;7.90;99.90;;;;;;4173848;28;20036;-60
2022/02/11 15:02:14;;;;;;;;;;;7.90;99.90;;;;;;4176623;28;19916;-61
2022/02/11 15:04:18;;;;;;;;;;;7.90;99.90;;;;;;4188399;28;20051;-58
2022/02/11 15:06:19;;;;;;;;;;;7.80;99.90;;;;;;4188255;28;20323;-60
2022/02/11 15:08:20;;;;;;;;;;;7.70;99.90;;;;;;4187513;28;19920;-59
2022/02/11 15:10:22;;;;;;;;;;;7.70;99.90;;;;;;4187693;28;19913;-57
2022/02/11 15:12:23;;;;;;;;;;;7.60;99.90;;;;;;4174468;28;19963;-59
2022/02/11 15:14:26;;;;;;;;;;;7.60;99.90;;;;;;4187594;28;19916;-60
2022/02/11 15:16:27;;;;;;;;;;;7.50;99.90;;;;;;4187933;28;19984;-59
2022/02/11 15:18:28;;;;;;;;;;;7.50;99.90;;;;;;4187849;28;20319;-59
2022/02/11 15:20:29;;;;;;;;;;;7.40;99.90;;;;;;4186542;28;19912;-61
2022/02/11 15:22:30;;;;;;;;;;;7.40;99.90;;;;;;4188305;28;19916;-62
2022/02/11 15:24:31;;;;;;;;;;;7.30;99.90;;;;;;4188136;28;20330;-58
2022/02/11 15:26:32;;;;;;;;;;;7.30;99.90;;;;;;4186938;28;19978;-59
2022/02/11 15:28:34;;;;;;;;;;;7.20;99.90;;;;;;4186096;28;19921;-57
2022/02/11 15:30:35;;;;;;;;;;;7.20;99.90;;;;;;4188022;28;19912;-61
2022/02/11 15:32:36;;;;;;;;;;;7.10;99.90;;;;;;4188408;28;19912;-60
2022/02/11 15:34:37;;;;;;;;;;;7.00;99.90;;;;;;4186348;28;19920;-61
2022/02/11 15:36:38;;;;;;;;;;;6.90;99.90;;;;;;4165404;28;20035;-60
2022/02/11 15:38:40;;;;;;;;;;;6.90;99.90;;;;;;4175878;28;19915;-61
2022/02/11 15:40:41;;;;;;;;;;;6.80;99.90;;;;;;4186390;28;20732;-62
2022/02/11 15:42:42;;;;;;;;;;;6.70;99.90;;;;;;4186656;28;19915;-60
2022/02/11 15:44:43;;;;;;;;;;;6.60;99.90;;;;;;4188126;28;20478;-61
2022/02/11 15:46:44;;;;;;;;;;;6.50;99.90;;;;;;4191179;28;20312;-60
2022/02/11 15:48:45;;;;;;;;;;;6.50;99.90;;;;;;4191950;28;19912;-61
2022/02/11 15:50:45;;;;;;;;;;;6.50;99.90;;;;;;4191305;28;19962;-60
2022/02/11 15:52:46;;;;;;;;;;;6.40;99.90;;;;;;4190942;28;19960;-64
2022/02/11 15:54:47;;;;;;;;;;;6.30;99.90;;;;;;4190428;28;19912;-58
2022/02/11 15:56:48;;;;;;;;;;;6.30;99.90;;;;;;4191214;28;20720;-58